sensor_id;sensor_type;location;lat;lon;timestamp;P1;durP1;ratioP1;P2;durP2;ratioP2
57697;SDS011;43531;52.152;6.366;2023-06-22T00:00:06;9.05;;;8.25;;
57697;SDS011;43531;52.152;6.366;2023-06-22T00:00:43;11.93;;;10.10;;
57697;SDS011;43531;52.152;6.366;2023-06-22T00:01:16;10.68;;;9.68;;
57697;SDS011;43531;52.152;6.366;2023-06-22T00:01:47;12.52;;;9.70;;
57697;SDS011;43531;52.152;6.366;2023-06-22T00:02:19;10.70;;;9.63;;
57697;SDS011;43531;52.152;6.366;2023-06-22T00:02:50;11.38;;;10.30;;
57697;SDS011;43531;52.152;6.366;2023-06-22T00:03:25;9.88;;;8.93;;
57697;SDS011;43531;52.152;6.366;2023-06-22T00:03:57;10.70;;;9.63;;
57697;SDS011;43531;52.152;6.366;2023-06-22T00:04:29;10.55;;;9.45;;
57697;SDS011;43531;52.152;6.366;2023-06-22T00:05:00;10.82;;;9.73;;
57697;SDS011;43531;52.152;6.366;2023-06-22T00:05:33;11.65;;;9.35;;
57697;SDS011;43531;52.152;6.366;2023-06-22T00:06:04;12.25;;;10.02;;
57697;SDS011;43531;52.152;6.366;2023-06-22T00:06:36;10.85;;;9.00;;
57697;SDS011;43531;52.152;6.366;2023-06-22T00:07:07;11.50;;;9.60;;
57697;SDS011;43531;52.152;6.366;2023-06-22T00:07:39;10.75;;;9.60;;
57697;SDS011;43531;52.152;6.366;2023-06-22T00:08:11;10.45;;;9.27;;
57697;SDS011;43531;52.152;6.366;2023-06-22T00:08:43;10.13;;;8.85;;
57697;SDS011;43531;52.152;6.366;2023-06-22T00:09:15;10.52;;;9.45;;
57697;SDS011;43531;52.152;6.366;2023-06-22T00:09:46;11.25;;;9.55;;
57697;SDS011;43531;52.152;6.366;2023-06-22T00:10:18;10.45;;;9.05;;
57697;SDS011;43531;52.152;6.366;2023-06-22T00:10:50;10.43;;;9.15;;
57697;SDS011;43531;52.152;6.366;2023-06-22T00:11:21;9.95;;;8.98;;
57697;SDS011;43531;52.152;6.366;2023-06-22T00:11:54;11.10;;;9.90;;
57697;SDS011;43531;52.152;6.366;2023-06-22T00:12:26;10.52;;;9.52;;
57697;SDS011;43531;52.152;6.366;2023-06-22T00:12:58;10.95;;;9.80;;
57697;SDS011;43531;52.152;6.366;2023-06-22T00:13:29;10.55;;;9.63;;
57697;SDS011;43531;52.152;6.366;2023-06-22T00:14:01;11.40;;;10.13;;
57697;SDS011;43531;52.152;6.366;2023-06-22T00:14:33;12.32;;;9.23;;
57697;SDS011;43531;52.152;6.366;2023-06-22T00:15:05;12.32;;;10.40;;
57697;SDS011;43531;52.152;6.366;2023-06-22T00:15:37;14.02;;;9.40;;
57697;SDS011;43531;52.152;6.366;2023-06-22T00:16:09;9.38;;;8.55;;
57697;SDS011;43531;52.152;6.366;2023-06-22T00:16:41;10.55;;;9.23;;
57697;SDS011;43531;52.152;6.366;2023-06-22T00:17:14;10.32;;;9.35;;
57697;SDS011;43531;52.152;6.366;2023-06-22T00:17:46;11.70;;;9.02;;
57697;SDS011;43531;52.152;6.366;2023-06-22T00:18:17;14.32;;;9.52;;
57697;SDS011;43531;52.152;6.366;2023-06-22T00:18:49;10.00;;;8.93;;
57697;SDS011;43531;52.152;6.366;2023-06-22T00:19:21;9.88;;;8.88;;
57697;SDS011;43531;52.152;6.366;2023-06-22T00:19:53;10.38;;;9.10;;
57697;SDS011;43531;52.152;6.366;2023-06-22T00:20:26;10.65;;;9.55;;
57697;SDS011;43531;52.152;6.366;2023-06-22T00:21:02;10.52;;;9.55;;
57697;SDS011;43531;52.152;6.366;2023-06-22T00:21:34;10.90;;;9.80;;
57697;SDS011;43531;52.152;6.366;2023-06-22T00:22:05;10.00;;;8.98;;
57697;SDS011;43531;52.152;6.366;2023-06-22T00:22:37;9.48;;;8.43;;
57697;SDS011;43531;52.152;6.366;2023-06-22T00:23:10;11.30;;;9.45;;
57697;SDS011;43531;52.152;6.366;2023-06-22T00:23:41;10.35;;;9.35;;
57697;SDS011;43531;52.152;6.366;2023-06-22T00:24:14;10.85;;;9.38;;
57697;SDS011;43531;52.152;6.366;2023-06-22T00:24:46;12.10;;;9.95;;
57697;SDS011;43531;52.152;6.366;2023-06-22T00:25:17;8.95;;;7.97;;
57697;SDS011;43531;52.152;6.366;2023-06-22T00:25:49;9.48;;;8.45;;
57697;SDS011;43531;52.152;6.366;2023-06-22T00:26:21;9.52;;;8.52;;
57697;SDS011;43531;52.152;6.366;2023-06-22T00:26:53;17.17;;;9.30;;
57697;SDS011;43531;52.152;6.366;2023-06-22T00:27:25;11.10;;;8.95;;
57697;SDS011;43531;52.152;6.366;2023-06-22T00:27:56;8.75;;;8.02;;
57697;SDS011;43531;52.152;6.366;2023-06-22T00:28:28;10.10;;;9.20;;
57697;SDS011;43531;52.152;6.366;2023-06-22T00:29:00;13.65;;;9.55;;
57697;SDS011;43531;52.152;6.366;2023-06-22T00:29:34;10.15;;;8.52;;
57697;SDS011;43531;52.152;6.366;2023-06-22T00:30:06;11.30;;;8.93;;
57697;SDS011;43531;52.152;6.366;2023-06-22T00:30:38;9.68;;;8.68;;
57697;SDS011;43531;52.152;6.366;2023-06-22T00:31:10;9.30;;;7.82;;
57697;SDS011;43531;52.152;6.366;2023-06-22T00:31:41;8.65;;;7.65;;
57697;SDS011;43531;52.152;6.366;2023-06-22T00:32:13;9.75;;;8.85;;
57697;SDS011;43531;52.152;6.366;2023-06-22T00:32:45;8.52;;;7.72;;
57697;SDS011;43531;52.152;6.366;2023-06-22T00:33:18;8.43;;;7.55;;
57697;SDS011;43531;52.152;6.366;2023-06-22T00:33:50;9.68;;;8.57;;
57697;SDS011;43531;52.152;6.366;2023-06-22T00:34:22;11.40;;;8.18;;
57697;SDS011;43531;52.152;6.366;2023-06-22T00:34:53;8.57;;;7.78;;
57697;SDS011;43531;52.152;6.366;2023-06-22T00:35:25;10.05;;;8.85;;
57697;SDS011;43531;52.152;6.366;2023-06-22T00:36:00;9.90;;;8.13;;
57697;SDS011;43531;52.152;6.366;2023-06-22T00:36:35;10.05;;;9.15;;
57697;SDS011;43531;52.152;6.366;2023-06-22T00:37:07;9.88;;;8.55;;
57697;SDS011;43531;52.152;6.366;2023-06-22T00:37:39;11.07;;;8.73;;
57697;SDS011;43531;52.152;6.366;2023-06-22T00:38:13;9.63;;;7.53;;
57697;SDS011;43531;52.152;6.366;2023-06-22T00:38:46;10.43;;;8.48;;
57697;SDS011;43531;52.152;6.366;2023-06-22T00:39:17;10.73;;;8.43;;
57697;SDS011;43531;52.152;6.366;2023-06-22T00:39:49;9.63;;;8.65;;
57697;SDS011;43531;52.152;6.366;2023-06-22T00:40:21;9.48;;;8.55;;
57697;SDS011;43531;52.152;6.366;2023-06-22T00:40:53;9.60;;;8.45;;
57697;SDS011;43531;52.152;6.366;2023-06-22T00:41:24;9.07;;;8.15;;
57697;SDS011;43531;52.152;6.366;2023-06-22T00:42:00;8.80;;;7.97;;
57697;SDS011;43531;52.152;6.366;2023-06-22T00:42:34;9.27;;;8.35;;
57697;SDS011;43531;52.152;6.366;2023-06-22T00:43:05;12.52;;;8.77;;
57697;SDS011;43531;52.152;6.366;2023-06-22T00:43:37;9.77;;;8.82;;
57697;SDS011;43531;52.152;6.366;2023-06-22T00:44:09;10.00;;;8.77;;
57697;SDS011;43531;52.152;6.366;2023-06-22T00:44:40;8.60;;;7.70;;
57697;SDS011;43531;52.152;6.366;2023-06-22T00:45:12;10.20;;;9.20;;
57697;SDS011;43531;52.152;6.366;2023-06-22T00:45:44;10.32;;;9.32;;
57697;SDS011;43531;52.152;6.366;2023-06-22T00:46:15;10.50;;;9.45;;
57697;SDS011;43531;52.152;6.366;2023-06-22T00:46:47;10.38;;;9.32;;
57697;SDS011;43531;52.152;6.366;2023-06-22T00:47:19;10.13;;;8.52;;
57697;SDS011;43531;52.152;6.366;2023-06-22T00:47:54;9.52;;;8.73;;
57697;SDS011;43531;52.152;6.366;2023-06-22T00:48:28;10.75;;;9.10;;
57697;SDS011;43531;52.152;6.366;2023-06-22T00:49:00;12.57;;;8.73;;
57697;SDS011;43531;52.152;6.366;2023-06-22T00:49:32;11.00;;;9.32;;
57697;SDS011;43531;52.152;6.366;2023-06-22T00:50:05;10.15;;;9.15;;
57697;SDS011;43531;52.152;6.366;2023-06-22T00:50:38;9.75;;;8.80;;
57697;SDS011;43531;52.152;6.366;2023-06-22T00:51:10;9.23;;;7.93;;
57697;SDS011;43531;52.152;6.366;2023-06-22T00:51:42;11.18;;;8.95;;
57697;SDS011;43531;52.152;6.366;2023-06-22T00:52:17;10.15;;;9.15;;
57697;SDS011;43531;52.152;6.366;2023-06-22T00:52:54;9.90;;;7.85;;
57697;SDS011;43531;52.152;6.366;2023-06-22T00:53:30;10.60;;;9.23;;
57697;SDS011;43531;52.152;6.366;2023-06-22T00:54:06;9.20;;;8.40;;
57697;SDS011;43531;52.152;6.366;2023-06-22T00:54:38;10.07;;;9.10;;
57697;SDS011;43531;52.152;6.366;2023-06-22T00:55:09;10.00;;;8.75;;
57697;SDS011;43531;52.152;6.366;2023-06-22T00:55:42;10.80;;;9.20;;
57697;SDS011;43531;52.152;6.366;2023-06-22T00:56:15;9.82;;;8.88;;
57697;SDS011;43531;52.152;6.366;2023-06-22T00:56:53;9.98;;;8.98;;
57697;SDS011;43531;52.152;6.366;2023-06-22T00:57:27;9.27;;;8.38;;
57697;SDS011;43531;52.152;6.366;2023-06-22T00:57:59;10.48;;;8.27;;
57697;SDS011;43531;52.152;6.366;2023-06-22T00:58:50;13.65;;;8.57;;
57697;SDS011;43531;52.152;6.366;2023-06-22T00:59:25;10.20;;;9.18;;
57697;SDS011;43531;52.152;6.366;2023-06-22T00:59:57;10.32;;;9.30;;
57697;SDS011;43531;52.152;6.366;2023-06-22T01:00:29;10.25;;;9.23;;
57697;SDS011;43531;52.152;6.366;2023-06-22T01:01:01;9.70;;;8.77;;
57697;SDS011;43531;52.152;6.366;2023-06-22T01:01:33;11.15;;;8.75;;
57697;SDS011;43531;52.152;6.366;2023-06-22T01:02:05;9.95;;;8.98;;
57697;SDS011;43531;52.152;6.366;2023-06-22T01:02:38;12.52;;;9.07;;
57697;SDS011;43531;52.152;6.366;2023-06-22T01:03:10;10.27;;;8.93;;
57697;SDS011;43531;52.152;6.366;2023-06-22T01:03:42;8.82;;;8.02;;
57697;SDS011;43531;52.152;6.366;2023-06-22T01:04:14;10.32;;;8.98;;
57697;SDS011;43531;52.152;6.366;2023-06-22T01:04:46;11.10;;;9.55;;
57697;SDS011;43531;52.152;6.366;2023-06-22T01:05:22;10.82;;;9.70;;
57697;SDS011;43531;52.152;6.366;2023-06-22T01:05:54;11.48;;;9.27;;
57697;SDS011;43531;52.152;6.366;2023-06-22T01:06:34;10.50;;;9.45;;
57697;SDS011;43531;52.152;6.366;2023-06-22T01:09:05;10.82;;;9.40;;
57697;SDS011;43531;52.152;6.366;2023-06-22T01:11:28;11.93;;;9.70;;
57697;SDS011;43531;52.152;6.366;2023-06-22T01:12:05;11.70;;;10.50;;
57697;SDS011;43531;52.152;6.366;2023-06-22T01:12:38;14.80;;;10.50;;
57697;SDS011;43531;52.152;6.366;2023-06-22T01:14:19;10.63;;;8.90;;
57697;SDS011;43531;52.152;6.366;2023-06-22T01:15:17;10.77;;;9.73;;
57697;SDS011;43531;52.152;6.366;2023-06-22T01:15:55;12.40;;;10.60;;
57697;SDS011;43531;52.152;6.366;2023-06-22T01:16:35;11.23;;;10.05;;
57697;SDS011;43531;52.152;6.366;2023-06-22T01:17:10;14.18;;;10.80;;
57697;SDS011;43531;52.152;6.366;2023-06-22T01:17:44;10.90;;;9.80;;
57697;SDS011;43531;52.152;6.366;2023-06-22T01:18:17;15.48;;;10.20;;
57697;SDS011;43531;52.152;6.366;2023-06-22T01:18:51;10.65;;;9.55;;
57697;SDS011;43531;52.152;6.366;2023-06-22T01:20:19;13.93;;;11.35;;
57697;SDS011;43531;52.152;6.366;2023-06-22T01:20:54;12.50;;;9.65;;
57697;SDS011;43531;52.152;6.366;2023-06-22T01:21:29;11.98;;;9.75;;
57697;SDS011;43531;52.152;6.366;2023-06-22T01:22:03;10.55;;;9.50;;
57697;SDS011;43531;52.152;6.366;2023-06-22T01:22:42;10.85;;;9.80;;
57697;SDS011;43531;52.152;6.366;2023-06-22T01:23:46;10.32;;;9.40;;
57697;SDS011;43531;52.152;6.366;2023-06-22T01:24:32;11.95;;;8.40;;
57697;SDS011;43531;52.152;6.366;2023-06-22T01:25:50;11.95;;;10.60;;
57697;SDS011;43531;52.152;6.366;2023-06-22T01:26:36;10.25;;;9.25;;
57697;SDS011;43531;52.152;6.366;2023-06-22T01:27:26;14.32;;;8.15;;
57697;SDS011;43531;52.152;6.366;2023-06-22T01:28:59;9.45;;;8.55;;
57697;SDS011;43531;52.152;6.366;2023-06-22T01:29:32;8.55;;;7.70;;
57697;SDS011;43531;52.152;6.366;2023-06-22T01:30:04;9.25;;;8.35;;
57697;SDS011;43531;52.152;6.366;2023-06-22T01:30:39;9.43;;;8.57;;
57697;SDS011;43531;52.152;6.366;2023-06-22T01:31:12;9.25;;;8.35;;
57697;SDS011;43531;52.152;6.366;2023-06-22T01:31:46;9.13;;;8.23;;
57697;SDS011;43531;52.152;6.366;2023-06-22T01:32:19;8.57;;;7.68;;
57697;SDS011;43531;52.152;6.366;2023-06-22T01:32:51;9.57;;;8.35;;
57697;SDS011;43531;52.152;6.366;2023-06-22T01:33:24;9.63;;;7.63;;
57697;SDS011;43531;52.152;6.366;2023-06-22T01:33:57;10.00;;;8.77;;
57697;SDS011;43531;52.152;6.366;2023-06-22T01:34:30;8.90;;;8.05;;
57697;SDS011;43531;52.152;6.366;2023-06-22T01:35:03;10.60;;;9.50;;
57697;SDS011;43531;52.152;6.366;2023-06-22T01:35:37;10.20;;;9.25;;
57697;SDS011;43531;52.152;6.366;2023-06-22T01:36:09;9.40;;;8.55;;
57697;SDS011;43531;52.152;6.366;2023-06-22T01:36:42;9.80;;;8.88;;
57697;SDS011;43531;52.152;6.366;2023-06-22T01:37:15;9.70;;;8.73;;
57697;SDS011;43531;52.152;6.366;2023-06-22T01:37:47;9.98;;;8.98;;
57697;SDS011;43531;52.152;6.366;2023-06-22T01:38:18;11.55;;;9.30;;
57697;SDS011;43531;52.152;6.366;2023-06-22T01:38:53;12.15;;;8.98;;
57697;SDS011;43531;52.152;6.366;2023-06-22T01:39:25;9.35;;;8.35;;
57697;SDS011;43531;52.152;6.366;2023-06-22T01:39:57;9.73;;;8.82;;
57697;SDS011;43531;52.152;6.366;2023-06-22T01:40:29;8.88;;;8.07;;
57697;SDS011;43531;52.152;6.366;2023-06-22T01:41:02;10.70;;;9.45;;
57697;SDS011;43531;52.152;6.366;2023-06-22T01:41:35;12.82;;;9.02;;
57697;SDS011;43531;52.152;6.366;2023-06-22T01:42:07;9.18;;;8.27;;
57697;SDS011;43531;52.152;6.366;2023-06-22T01:42:39;9.70;;;8.70;;
57697;SDS011;43531;52.152;6.366;2023-06-22T01:43:11;9.63;;;8.73;;
57697;SDS011;43531;52.152;6.366;2023-06-22T01:43:43;9.32;;;8.35;;
57697;SDS011;43531;52.152;6.366;2023-06-22T01:44:15;10.15;;;8.50;;
57697;SDS011;43531;52.152;6.366;2023-06-22T01:44:47;10.73;;;8.05;;
57697;SDS011;43531;52.152;6.366;2023-06-22T01:45:19;8.75;;;7.95;;
57697;SDS011;43531;52.152;6.366;2023-06-22T01:45:50;10.57;;;9.50;;
57697;SDS011;43531;52.152;6.366;2023-06-22T01:46:23;11.43;;;8.45;;
57697;SDS011;43531;52.152;6.366;2023-06-22T01:46:54;8.75;;;7.95;;
57697;SDS011;43531;52.152;6.366;2023-06-22T01:47:26;9.23;;;8.32;;
57697;SDS011;43531;52.152;6.366;2023-06-22T01:48:00;9.70;;;8.77;;
57697;SDS011;43531;52.152;6.366;2023-06-22T01:48:32;9.63;;;8.30;;
57697;SDS011;43531;52.152;6.366;2023-06-22T01:49:05;9.77;;;8.77;;
57697;SDS011;43531;52.152;6.366;2023-06-22T01:49:37;10.25;;;8.43;;
57697;SDS011;43531;52.152;6.366;2023-06-22T01:50:09;11.75;;;10.02;;
57697;SDS011;43531;52.152;6.366;2023-06-22T01:50:42;9.63;;;7.68;;
57697;SDS011;43531;52.152;6.366;2023-06-22T01:51:15;11.10;;;8.35;;
57697;SDS011;43531;52.152;6.366;2023-06-22T01:51:46;10.52;;;8.63;;
57697;SDS011;43531;52.152;6.366;2023-06-22T01:52:18;9.07;;;8.07;;
57697;SDS011;43531;52.152;6.366;2023-06-22T01:52:52;11.48;;;8.95;;
57697;SDS011;43531;52.152;6.366;2023-06-22T01:53:24;10.57;;;9.05;;
57697;SDS011;43531;52.152;6.366;2023-06-22T01:53:56;9.38;;;8.40;;
57697;SDS011;43531;52.152;6.366;2023-06-22T01:54:27;12.18;;;9.10;;
57697;SDS011;43531;52.152;6.366;2023-06-22T01:54:59;9.32;;;8.43;;
57697;SDS011;43531;52.152;6.366;2023-06-22T01:55:31;12.45;;;8.35;;
57697;SDS011;43531;52.152;6.366;2023-06-22T01:56:03;8.93;;;8.13;;
57697;SDS011;43531;52.152;6.366;2023-06-22T01:56:35;10.00;;;8.63;;
57697;SDS011;43531;52.152;6.366;2023-06-22T01:57:07;9.50;;;8.45;;
57697;SDS011;43531;52.152;6.366;2023-06-22T01:57:39;9.70;;;8.73;;
57697;SDS011;43531;52.152;6.366;2023-06-22T01:58:11;9.73;;;8.43;;
57697;SDS011;43531;52.152;6.366;2023-06-22T01:58:46;9.48;;;8.40;;
57697;SDS011;43531;52.152;6.366;2023-06-22T01:59:34;9.77;;;8.80;;
57697;SDS011;43531;52.152;6.366;2023-06-22T02:00:12;12.13;;;8.38;;
57697;SDS011;43531;52.152;6.366;2023-06-22T02:00:48;8.48;;;7.60;;
57697;SDS011;43531;52.152;6.366;2023-06-22T02:01:24;8.90;;;7.80;;
57697;SDS011;43531;52.152;6.366;2023-06-22T02:02:01;8.65;;;7.85;;
57697;SDS011;43531;52.152;6.366;2023-06-22T02:02:46;8.98;;;7.65;;
57697;SDS011;43531;52.152;6.366;2023-06-22T02:03:26;12.40;;;7.85;;
57697;SDS011;43531;52.152;6.366;2023-06-22T02:04:17;11.75;;;7.53;;
57697;SDS011;43531;52.152;6.366;2023-06-22T02:05:25;8.55;;;7.75;;
57697;SDS011;43531;52.152;6.366;2023-06-22T02:06:04;7.95;;;7.15;;
57697;SDS011;43531;52.152;6.366;2023-06-22T02:06:38;8.20;;;7.40;;
57697;SDS011;43531;52.152;6.366;2023-06-22T02:07:12;9.45;;;7.68;;
57697;SDS011;43531;52.152;6.366;2023-06-22T02:07:47;11.38;;;8.60;;
57697;SDS011;43531;52.152;6.366;2023-06-22T02:08:22;9.00;;;8.10;;
57697;SDS011;43531;52.152;6.366;2023-06-22T02:08:57;7.57;;;6.88;;
57697;SDS011;43531;52.152;6.366;2023-06-22T02:09:30;10.30;;;7.55;;
57697;SDS011;43531;52.152;6.366;2023-06-22T02:10:04;9.52;;;8.57;;
57697;SDS011;43531;52.152;6.366;2023-06-22T02:10:38;10.52;;;9.05;;
57697;SDS011;43531;52.152;6.366;2023-06-22T02:11:12;11.48;;;8.85;;
57697;SDS011;43531;52.152;6.366;2023-06-22T02:11:45;8.70;;;7.90;;
57697;SDS011;43531;52.152;6.366;2023-06-22T02:12:20;9.75;;;8.80;;
57697;SDS011;43531;52.152;6.366;2023-06-22T02:12:53;9.98;;;8.15;;
57697;SDS011;43531;52.152;6.366;2023-06-22T02:13:26;11.45;;;8.20;;
57697;SDS011;43531;52.152;6.366;2023-06-22T02:13:59;9.20;;;8.30;;
57697;SDS011;43531;52.152;6.366;2023-06-22T02:14:31;10.52;;;9.43;;
57697;SDS011;43531;52.152;6.366;2023-06-22T02:15:02;10.23;;;9.18;;
57697;SDS011;43531;52.152;6.366;2023-06-22T02:15:34;11.30;;;10.07;;
57697;SDS011;43531;52.152;6.366;2023-06-22T02:16:06;13.68;;;9.38;;
57697;SDS011;43531;52.152;6.366;2023-06-22T02:16:38;10.75;;;9.23;;
57697;SDS011;43531;52.152;6.366;2023-06-22T02:17:10;11.07;;;10.07;;
57697;SDS011;43531;52.152;6.366;2023-06-22T02:17:42;9.80;;;8.90;;
57697;SDS011;43531;52.152;6.366;2023-06-22T02:18:16;10.13;;;9.10;;
57697;SDS011;43531;52.152;6.366;2023-06-22T02:18:48;10.75;;;9.68;;
57697;SDS011;43531;52.152;6.366;2023-06-22T02:19:22;11.52;;;9.88;;
57697;SDS011;43531;52.152;6.366;2023-06-22T02:19:55;11.27;;;9.15;;
57697;SDS011;43531;52.152;6.366;2023-06-22T02:20:27;11.25;;;9.70;;
57697;SDS011;43531;52.152;6.366;2023-06-22T02:21:00;14.68;;;10.50;;
57697;SDS011;43531;52.152;6.366;2023-06-22T02:21:32;10.95;;;9.77;;
57697;SDS011;43531;52.152;6.366;2023-06-22T02:22:04;12.70;;;10.93;;
57697;SDS011;43531;52.152;6.366;2023-06-22T02:22:35;12.10;;;10.50;;
57697;SDS011;43531;52.152;6.366;2023-06-22T02:23:08;11.45;;;10.30;;
57697;SDS011;43531;52.152;6.366;2023-06-22T02:23:40;12.15;;;10.85;;
57697;SDS011;43531;52.152;6.366;2023-06-22T02:24:11;11.50;;;10.38;;
57697;SDS011;43531;52.152;6.366;2023-06-22T02:24:43;13.27;;;10.05;;
57697;SDS011;43531;52.152;6.366;2023-06-22T02:25:15;11.98;;;10.73;;
57697;SDS011;43531;52.152;6.366;2023-06-22T02:25:48;12.10;;;10.55;;
57697;SDS011;43531;52.152;6.366;2023-06-22T02:26:20;13.20;;;11.15;;
57697;SDS011;43531;52.152;6.366;2023-06-22T02:26:52;11.85;;;10.57;;
57697;SDS011;43531;52.152;6.366;2023-06-22T02:27:23;15.43;;;10.10;;
57697;SDS011;43531;52.152;6.366;2023-06-22T02:27:55;11.35;;;10.27;;
57697;SDS011;43531;52.152;6.366;2023-06-22T02:28:26;11.15;;;10.05;;
57697;SDS011;43531;52.152;6.366;2023-06-22T02:28:58;11.70;;;10.55;;
57697;SDS011;43531;52.152;6.366;2023-06-22T02:29:30;11.57;;;10.32;;
57697;SDS011;43531;52.152;6.366;2023-06-22T02:30:01;10.63;;;9.55;;
57697;SDS011;43531;52.152;6.366;2023-06-22T02:30:35;12.40;;;10.90;;
57697;SDS011;43531;52.152;6.366;2023-06-22T02:31:07;12.52;;;11.32;;
57697;SDS011;43531;52.152;6.366;2023-06-22T02:31:38;13.25;;;11.95;;
57697;SDS011;43531;52.152;6.366;2023-06-22T02:32:11;12.35;;;10.93;;
57697;SDS011;43531;52.152;6.366;2023-06-22T02:32:42;12.77;;;10.68;;
57697;SDS011;43531;52.152;6.366;2023-06-22T02:33:14;13.07;;;11.73;;
57697;SDS011;43531;52.152;6.366;2023-06-22T02:33:46;12.52;;;10.55;;
57697;SDS011;43531;52.152;6.366;2023-06-22T02:34:23;12.10;;;10.90;;
57697;SDS011;43531;52.152;6.366;2023-06-22T02:34:55;12.05;;;10.80;;
57697;SDS011;43531;52.152;6.366;2023-06-22T02:35:28;13.38;;;11.45;;
57697;SDS011;43531;52.152;6.366;2023-06-22T02:36:03;10.98;;;9.90;;
57697;SDS011;43531;52.152;6.366;2023-06-22T02:36:36;11.60;;;10.38;;
57697;SDS011;43531;52.152;6.366;2023-06-22T02:37:08;12.27;;;10.27;;
57697;SDS011;43531;52.152;6.366;2023-06-22T02:37:44;12.73;;;10.85;;
57697;SDS011;43531;52.152;6.366;2023-06-22T02:38:15;10.95;;;9.73;;
57697;SDS011;43531;52.152;6.366;2023-06-22T02:38:49;10.10;;;9.13;;
57697;SDS011;43531;52.152;6.366;2023-06-22T02:39:21;10.23;;;9.30;;
57697;SDS011;43531;52.152;6.366;2023-06-22T02:39:54;9.80;;;8.80;;
57697;SDS011;43531;52.152;6.366;2023-06-22T02:40:25;9.55;;;8.57;;
57697;SDS011;43531;52.152;6.366;2023-06-22T02:41:00;9.25;;;8.35;;
57697;SDS011;43531;52.152;6.366;2023-06-22T02:41:32;10.88;;;9.75;;
57697;SDS011;43531;52.152;6.366;2023-06-22T02:42:04;13.35;;;8.77;;
57697;SDS011;43531;52.152;6.366;2023-06-22T02:42:36;10.30;;;9.35;;
57697;SDS011;43531;52.152;6.366;2023-06-22T02:43:08;9.88;;;8.75;;
57697;SDS011;43531;52.152;6.366;2023-06-22T02:43:40;11.27;;;9.27;;
57697;SDS011;43531;52.152;6.366;2023-06-22T02:44:12;11.48;;;10.27;;
57697;SDS011;43531;52.152;6.366;2023-06-22T02:44:44;12.00;;;10.82;;
57697;SDS011;43531;52.152;6.366;2023-06-22T02:45:16;12.25;;;10.63;;
57697;SDS011;43531;52.152;6.366;2023-06-22T02:45:48;11.23;;;10.05;;
57697;SDS011;43531;52.152;6.366;2023-06-22T02:46:20;12.30;;;10.77;;
57697;SDS011;43531;52.152;6.366;2023-06-22T02:46:53;13.27;;;12.02;;
57697;SDS011;43531;52.152;6.366;2023-06-22T02:47:26;10.70;;;9.63;;
57697;SDS011;43531;52.152;6.366;2023-06-22T02:47:58;12.20;;;10.90;;
57697;SDS011;43531;52.152;6.366;2023-06-22T02:48:29;12.90;;;11.60;;
57697;SDS011;43531;52.152;6.366;2023-06-22T02:49:01;12.23;;;11.13;;
57697;SDS011;43531;52.152;6.366;2023-06-22T02:49:33;13.13;;;11.30;;
57697;SDS011;43531;52.152;6.366;2023-06-22T02:50:05;12.65;;;11.35;;
57697;SDS011;43531;52.152;6.366;2023-06-22T02:50:38;12.05;;;10.85;;
57697;SDS011;43531;52.152;6.366;2023-06-22T02:51:10;12.10;;;10.80;;
57697;SDS011;43531;52.152;6.366;2023-06-22T02:51:44;10.75;;;9.15;;
57697;SDS011;43531;52.152;6.366;2023-06-22T02:52:18;10.52;;;9.43;;
57697;SDS011;43531;52.152;6.366;2023-06-22T02:52:50;10.30;;;9.23;;
57697;SDS011;43531;52.152;6.366;2023-06-22T02:53:21;11.05;;;9.10;;
57697;SDS011;43531;52.152;6.366;2023-06-22T02:53:53;10.15;;;9.25;;
57697;SDS011;43531;52.152;6.366;2023-06-22T02:54:31;10.63;;;8.63;;
57697;SDS011;43531;52.152;6.366;2023-06-22T02:55:02;10.85;;;9.75;;
57697;SDS011;43531;52.152;6.366;2023-06-22T02:55:34;10.38;;;9.38;;
57697;SDS011;43531;52.152;6.366;2023-06-22T02:56:06;11.60;;;10.45;;
57697;SDS011;43531;52.152;6.366;2023-06-22T02:56:41;10.93;;;9.73;;
57697;SDS011;43531;52.152;6.366;2023-06-22T02:57:15;11.88;;;10.43;;
57697;SDS011;43531;52.152;6.366;2023-06-22T02:57:48;13.73;;;10.38;;
57697;SDS011;43531;52.152;6.366;2023-06-22T02:58:24;10.93;;;9.82;;
57697;SDS011;43531;52.152;6.366;2023-06-22T02:58:56;11.85;;;10.60;;
57697;SDS011;43531;52.152;6.366;2023-06-22T02:59:36;13.70;;;10.35;;
57697;SDS011;43531;52.152;6.366;2023-06-22T03:00:14;15.10;;;10.77;;
57697;SDS011;43531;52.152;6.366;2023-06-22T03:00:51;12.15;;;10.88;;
57697;SDS011;43531;52.152;6.366;2023-06-22T03:01:24;11.75;;;10.43;;
57697;SDS011;43531;52.152;6.366;2023-06-22T03:01:56;13.10;;;10.68;;
57697;SDS011;43531;52.152;6.366;2023-06-22T03:02:32;12.57;;;10.68;;
57697;SDS011;43531;52.152;6.366;2023-06-22T03:03:04;12.20;;;11.00;;
57697;SDS011;43531;52.152;6.366;2023-06-22T03:03:36;14.32;;;12.25;;
57697;SDS011;43531;52.152;6.366;2023-06-22T03:04:08;11.00;;;9.95;;
57697;SDS011;43531;52.152;6.366;2023-06-22T03:04:40;11.65;;;10.65;;
57697;SDS011;43531;52.152;6.366;2023-06-22T03:05:14;15.75;;;11.07;;
57697;SDS011;43531;52.152;6.366;2023-06-22T03:05:46;12.68;;;10.75;;
57697;SDS011;43531;52.152;6.366;2023-06-22T03:06:18;12.55;;;11.15;;
57697;SDS011;43531;52.152;6.366;2023-06-22T03:06:55;12.45;;;11.20;;
57697;SDS011;43531;52.152;6.366;2023-06-22T03:07:26;12.88;;;11.52;;
57697;SDS011;43531;52.152;6.366;2023-06-22T03:08:00;13.63;;;11.95;;
57697;SDS011;43531;52.152;6.366;2023-06-22T03:08:35;13.13;;;11.13;;
57697;SDS011;43531;52.152;6.366;2023-06-22T03:09:07;12.85;;;11.55;;
57697;SDS011;43531;52.152;6.366;2023-06-22T03:09:40;13.15;;;11.82;;
57697;SDS011;43531;52.152;6.366;2023-06-22T03:10:13;14.40;;;11.43;;
57697;SDS011;43531;52.152;6.366;2023-06-22T03:10:46;12.05;;;10.90;;
57697;SDS011;43531;52.152;6.366;2023-06-22T03:11:18;12.73;;;11.30;;
57697;SDS011;43531;52.152;6.366;2023-06-22T03:11:49;13.23;;;10.80;;
57697;SDS011;43531;52.152;6.366;2023-06-22T03:12:22;12.38;;;11.27;;
57697;SDS011;43531;52.152;6.366;2023-06-22T03:12:57;12.13;;;10.52;;
57697;SDS011;43531;52.152;6.366;2023-06-22T03:13:29;13.35;;;11.95;;
57697;SDS011;43531;52.152;6.366;2023-06-22T03:14:00;14.98;;;11.23;;
57697;SDS011;43531;52.152;6.366;2023-06-22T03:14:32;11.80;;;10.60;;
57697;SDS011;43531;52.152;6.366;2023-06-22T03:15:08;14.18;;;10.93;;
57697;SDS011;43531;52.152;6.366;2023-06-22T03:15:43;13.02;;;11.82;;
57697;SDS011;43531;52.152;6.366;2023-06-22T03:16:14;14.02;;;11.77;;
57697;SDS011;43531;52.152;6.366;2023-06-22T03:16:46;12.48;;;11.30;;
57697;SDS011;43531;52.152;6.366;2023-06-22T03:17:18;12.48;;;11.27;;
57697;SDS011;43531;52.152;6.366;2023-06-22T03:17:50;14.88;;;11.68;;
57697;SDS011;43531;52.152;6.366;2023-06-22T03:18:21;13.32;;;11.80;;
57697;SDS011;43531;52.152;6.366;2023-06-22T03:18:53;12.90;;;11.60;;
57697;SDS011;43531;52.152;6.366;2023-06-22T03:19:25;13.02;;;11.73;;
57697;SDS011;43531;52.152;6.366;2023-06-22T03:19:57;14.02;;;12.60;;
57697;SDS011;43531;52.152;6.366;2023-06-22T03:20:29;13.20;;;11.90;;
57697;SDS011;43531;52.152;6.366;2023-06-22T03:21:05;14.40;;;12.98;;
57697;SDS011;43531;52.152;6.366;2023-06-22T03:21:37;13.20;;;11.93;;
57697;SDS011;43531;52.152;6.366;2023-06-22T03:22:10;13.95;;;11.90;;
57697;SDS011;43531;52.152;6.366;2023-06-22T03:22:44;14.23;;;12.75;;
57697;SDS011;43531;52.152;6.366;2023-06-22T03:23:16;14.77;;;13.25;;
57697;SDS011;43531;52.152;6.366;2023-06-22T03:23:47;13.77;;;12.35;;
57697;SDS011;43531;52.152;6.366;2023-06-22T03:24:20;16.83;;;12.52;;
57697;SDS011;43531;52.152;6.366;2023-06-22T03:24:52;14.30;;;12.90;;
57697;SDS011;43531;52.152;6.366;2023-06-22T03:25:24;12.80;;;10.35;;